sensor_id;sensor_type;location;lat;lon;timestamp;pressure;altitude;pressure_sealevel;temperature;humidity
31681;BME280;18281;51.364;9.566;2023-08-07T00:01:13;99228.81;;;13.07;100.00
31681;BME280;18281;51.364;9.566;2023-08-07T00:03:38;99226.53;;;13.02;100.00
31681;BME280;18281;51.364;9.566;2023-08-07T00:06:04;99225.94;;;12.99;100.00
31681;BME280;18281;51.364;9.566;2023-08-07T00:08:29;99224.72;;;12.91;100.00
31681;BME280;18281;51.364;9.566;2023-08-07T00:11:06;99216.81;;;12.91;100.00
31681;BME280;18281;51.364;9.566;2023-08-07T00:13:31;99222.00;;;12.93;100.00
31681;BME280;18281;51.364;9.566;2023-08-07T00:15:56;99226.91;;;12.98;100.00
31681;BME280;18281;51.364;9.566;2023-08-07T00:18:21;99222.47;;;12.98;100.00
31681;BME280;18281;51.364;9.566;2023-08-07T00:20:47;99226.03;;;12.74;100.00
31681;BME280;18281;51.364;9.566;2023-08-07T00:23:12;99233.72;;;12.78;100.00
31681;BME280;18281;51.364;9.566;2023-08-07T00:25:37;99223.50;;;12.73;100.00
31681;BME280;18281;51.364;9.566;2023-08-07T00:28:02;99227.47;;;12.79;100.00
31681;BME280;18281;51.364;9.566;2023-08-07T00:30:28;99235.59;;;12.87;100.00
31681;BME280;18281;51.364;9.566;2023-08-07T00:32:53;99229.97;;;12.69;100.00
31681;BME280;18281;51.364;9.566;2023-08-07T00:35:18;99238.81;;;12.68;100.00
31681;BME280;18281;51.364;9.566;2023-08-07T00:37:43;99233.34;;;12.71;100.00
31681;BME280;18281;51.364;9.566;2023-08-07T00:40:09;99226.63;;;12.78;100.00
31681;BME280;18281;51.364;9.566;2023-08-07T00:42:34;99233.59;;;12.79;100.00
31681;BME280;18281;51.364;9.566;2023-08-07T00:44:59;99231.91;;;12.78;100.00
31681;BME280;18281;51.364;9.566;2023-08-07T00:47:26;99219.19;;;12.72;100.00
31681;BME280;18281;51.364;9.566;2023-08-07T00:49:51;99224.91;;;12.54;100.00
31681;BME280;18281;51.364;9.566;2023-08-07T00:52:16;99228.50;;;12.53;100.00
31681;BME280;18281;51.364;9.566;2023-08-07T00:54:42;99234.25;;;12.58;100.00
31681;BME280;18281;51.364;9.566;2023-08-07T00:57:11;99233.69;;;12.66;100.00
31681;BME280;18281;51.364;9.566;2023-08-07T00:59:37;99244.56;;;12.73;100.00
31681;BME280;18281;51.364;9.566;2023-08-07T01:02:02;99234.41;;;12.68;100.00
31681;BME280;18281;51.364;9.566;2023-08-07T01:04:29;99237.63;;;12.72;100.00
31681;BME280;18281;51.364;9.566;2023-08-07T01:06:54;99246.22;;;12.63;100.00
31681;BME280;18281;51.364;9.566;2023-08-07T01:09:19;99243.59;;;12.63;100.00
31681;BME280;18281;51.364;9.566;2023-08-07T01:14:23;99253.19;;;12.52;100.00
31681;BME280;18281;51.364;9.566;2023-08-07T01:16:52;99248.28;;;12.59;100.00
31681;BME280;18281;51.364;9.566;2023-08-07T01:19:26;99247.78;;;12.54;100.00
31681;BME280;18281;51.364;9.566;2023-08-07T01:24:37;99244.41;;;12.52;100.00
31681;BME280;18281;51.364;9.566;2023-08-07T01:27:25;99250.66;;;12.51;100.00
31681;BME280;18281;51.364;9.566;2023-08-07T01:32:22;99254.25;;;12.50;100.00
31681;BME280;18281;51.364;9.566;2023-08-07T01:34:49;99251.50;;;12.51;100.00
31681;BME280;18281;51.364;9.566;2023-08-07T01:37:16;99247.50;;;12.34;100.00
31681;BME280;18281;51.364;9.566;2023-08-07T01:39:42;99254.81;;;12.42;100.00
31681;BME280;18281;51.364;9.566;2023-08-07T01:42:08;99258.28;;;12.42;100.00
31681;BME280;18281;51.364;9.566;2023-08-07T01:44:35;99257.94;;;12.47;100.00
31681;BME280;18281;51.364;9.566;2023-08-07T01:47:01;99259.63;;;12.48;100.00
31681;BME280;18281;51.364;9.566;2023-08-07T01:49:26;99259.13;;;12.43;100.00
31681;BME280;18281;51.364;9.566;2023-08-07T01:51:51;99262.53;;;12.21;100.00
31681;BME280;18281;51.364;9.566;2023-08-07T01:54:16;99254.94;;;12.40;100.00
31681;BME280;18281;51.364;9.566;2023-08-07T01:56:42;99259.47;;;12.38;100.00
31681;BME280;18281;51.364;9.566;2023-08-07T01:59:07;99259.72;;;12.47;100.00
31681;BME280;18281;51.364;9.566;2023-08-07T02:01:32;99255.19;;;12.49;100.00
31681;BME280;18281;51.364;9.566;2023-08-07T02:03:57;99256.13;;;12.48;100.00
31681;BME280;18281;51.364;9.566;2023-08-07T02:06:22;99261.28;;;12.38;100.00
31681;BME280;18281;51.364;9.566;2023-08-07T02:08:48;99265.22;;;12.43;100.00
31681;BME280;18281;51.364;9.566;2023-08-07T02:11:13;99265.47;;;12.40;100.00
31681;BME280;18281;51.364;9.566;2023-08-07T02:13:38;99262.97;;;12.39;100.00
31681;BME280;18281;51.364;9.566;2023-08-07T02:16:03;99263.53;;;12.42;100.00
31681;BME280;18281;51.364;9.566;2023-08-07T02:18:29;99262.97;;;12.39;100.00
31681;BME280;18281;51.364;9.566;2023-08-07T02:20:54;99262.09;;;12.38;100.00
31681;BME280;18281;51.364;9.566;2023-08-07T02:23:19;99255.56;;;12.44;100.00
31681;BME280;18281;51.364;9.566;2023-08-07T02:25:44;99259.84;;;12.45;100.00
31681;BME280;18281;51.364;9.566;2023-08-07T02:28:10;99263.78;;;12.39;100.00
31681;BME280;18281;51.364;9.566;2023-08-07T02:30:35;99258.41;;;12.41;100.00
31681;BME280;18281;51.364;9.566;2023-08-07T02:33:01;99264.84;;;12.37;100.00
31681;BME280;18281;51.364;9.566;2023-08-07T02:35:26;99260.28;;;12.28;100.00
31681;BME280;18281;51.364;9.566;2023-08-07T02:37:51;99262.34;;;12.35;100.00
31681;BME280;18281;51.364;9.566;2023-08-07T02:40:17;99262.59;;;12.43;100.00
31681;BME280;18281;51.364;9.566;2023-08-07T02:42:43;99259.34;;;12.40;100.00
31681;BME280;18281;51.364;9.566;2023-08-07T02:45:09;99264.84;;;12.37;100.00
31681;BME280;18281;51.364;9.566;2023-08-07T02:47:34;99261.84;;;12.30;100.00
31681;BME280;18281;51.364;9.566;2023-08-07T02:49:59;99256.16;;;12.12;100.00
31681;BME280;18281;51.364;9.566;2023-08-07T02:52:24;99261.84;;;12.30;100.00
31681;BME280;18281;51.364;9.566;2023-08-07T02:54:50;99258.16;;;12.33;100.00
31681;BME280;18281;51.364;9.566;2023-08-07T02:57:15;99259.56;;;12.25;100.00
31681;BME280;18281;51.364;9.566;2023-08-07T02:59:40;99259.09;;;12.32;100.00
31681;BME280;18281;51.364;9.566;2023-08-07T03:02:05;99269.28;;;12.36;100.00
31681;BME280;18281;51.364;9.566;2023-08-07T03:04:30;99262.34;;;12.35;100.00
31681;BME280;18281;51.364;9.566;2023-08-07T03:06:56;99265.91;;;12.23;100.00
31681;BME280;18281;51.364;9.566;2023-08-07T03:09:21;99262.69;;;12.31;100.00
31681;BME280;18281;51.364;9.566;2023-08-07T03:11:46;99271.19;;;12.34;100.00
31681;BME280;18281;51.364;9.566;2023-08-07T03:14:11;99251.19;;;12.32;100.00
31681;BME280;18281;51.364;9.566;2023-08-07T03:16:37;99255.63;;;12.31;100.00
31681;BME280;18281;51.364;9.566;2023-08-07T03:19:02;99254.19;;;12.27;100.00
31681;BME280;18281;51.364;9.566;2023-08-07T03:21:27;99257.16;;;12.22;100.00
31681;BME280;18281;51.364;9.566;2023-08-07T03:23:53;99253.94;;;12.30;100.00
31681;BME280;18281;51.364;9.566;2023-08-07T03:26:18;99258.50;;;12.28;100.00
31681;BME280;18281;51.364;9.566;2023-08-07T03:28:43;99259.44;;;12.27;100.00
31681;BME280;18281;51.364;9.566;2023-08-07T03:31:11;99257.88;;;12.24;100.00
31681;BME280;18281;51.364;9.566;2023-08-07T03:33:36;99271.28;;;12.21;100.00
31681;BME280;18281;51.364;9.566;2023-08-07T03:36:01;99272.72;;;12.25;100.00
31681;BME280;18281;51.364;9.566;2023-08-07T03:38:27;99275.34;;;12.25;100.00
31681;BME280;18281;51.364;9.566;2023-08-07T03:40:52;99275.56;;;12.22;100.00
31681;BME280;18281;51.364;9.566;2023-08-07T03:43:17;99271.03;;;12.24;100.00
31681;BME280;18281;51.364;9.566;2023-08-07T03:45:42;99273.66;;;12.24;100.00
31681;BME280;18281;51.364;9.566;2023-08-07T03:48:08;99273.66;;;12.24;100.00
31681;BME280;18281;51.364;9.566;2023-08-07T03:50:33;99285.13;;;12.23;100.00
31681;BME280;18281;51.364;9.566;2023-08-07T03:53:05;99279.38;;;12.18;100.00
31681;BME280;18281;51.364;9.566;2023-08-07T03:55:32;99265.41;;;12.18;100.00
31681;BME280;18281;51.364;9.566;2023-08-07T03:57:57;99274.38;;;12.26;100.00
31681;BME280;18281;51.364;9.566;2023-08-07T04:00:22;99278.19;;;12.22;100.00
31681;BME280;18281;51.364;9.566;2023-08-07T04:02:47;99276.53;;;12.21;100.00
31681;BME280;18281;51.364;9.566;2023-08-07T04:05:13;99283.38;;;12.24;100.00
31681;BME280;18281;51.364;9.566;2023-08-07T04:07:38;99285.13;;;12.23;100.00
31681;BME280;18281;51.364;9.566;2023-08-07T04:10:03;99287.88;;;12.11;100.00
31681;BME280;18281;51.364;9.566;2023-08-07T04:12:28;99282.00;;;12.18;100.00
31681;BME280;18281;51.364;9.566;2023-08-07T04:14:54;99285.38;;;12.20;100.00
31681;BME280;18281;51.364;9.566;2023-08-07T04:17:19;99286.00;;;12.24;100.00
31681;BME280;18281;51.364;9.566;2023-08-07T04:19:44;99287.66;;;12.25;100.00
31681;BME280;18281;51.364;9.566;2023-08-07T04:22:09;99285.88;;;12.25;100.00
31681;BME280;18281;51.364;9.566;2023-08-07T04:24:35;99289.59;;;12.23;100.00
31681;BME280;18281;51.364;9.566;2023-08-07T04:27:00;99292.78;;;12.15;100.00
31681;BME280;18281;51.364;9.566;2023-08-07T04:29:25;99297.59;;;12.21;100.00
31681;BME280;18281;51.364;9.566;2023-08-07T04:31:50;99292.34;;;12.21;100.00
31681;BME280;18281;51.364;9.566;2023-08-07T04:34:16;99298.31;;;12.23;100.00
31681;BME280;18281;51.364;9.566;2023-08-07T04:36:41;99301.06;;;12.22;100.00
31681;BME280;18281;51.364;9.566;2023-08-07T04:39:06;99304.03;;;12.17;100.00
31681;BME280;18281;51.364;9.566;2023-08-07T04:41:32;99301.28;;;12.19;100.00
31681;BME280;18281;51.364;9.566;2023-08-07T04:43:57;99302.84;;;12.21;100.00
31681;BME280;18281;51.364;9.566;2023-08-07T04:46:22;99295.91;;;12.20;100.00
31681;BME280;18281;51.364;9.566;2023-08-07T04:48:47;99302.94;;;12.20;100.00
31681;BME280;18281;51.364;9.566;2023-08-07T04:51:13;99303.91;;;12.19;100.00
31681;BME280;18281;51.364;9.566;2023-08-07T04:53:38;99311.53;;;12.11;100.00
31681;BME280;18281;51.364;9.566;2023-08-07T04:56:04;99311.03;;;12.05;100.00
31681;BME280;18281;51.364;9.566;2023-08-07T04:58:29;99314.16;;;12.11;100.00
31681;BME280;18281;51.364;9.566;2023-08-07T05:00:55;99306.56;;;11.95;100.00
31681;BME280;18281;51.364;9.566;2023-08-07T05:03:20;99310.69;;;12.10;100.00
31681;BME280;18281;51.364;9.566;2023-08-07T05:05:46;99321.47;;;12.18;100.00
31681;BME280;18281;51.364;9.566;2023-08-07T05:08:11;99314.91;;;12.48;100.00
31681;BME280;18281;51.364;9.566;2023-08-07T05:10:36;99307.53;;;12.76;100.00
31681;BME280;18281;51.364;9.566;2023-08-07T05:13:01;99309.25;;;12.88;100.00
31681;BME280;18281;51.364;9.566;2023-08-07T05:15:27;99310.50;;;12.96;100.00
31681;BME280;18281;51.364;9.566;2023-08-07T05:17:54;99319.97;;;12.98;100.00
31681;BME280;18281;51.364;9.566;2023-08-07T05:20:19;99320.66;;;13.00;100.00
31681;BME280;18281;51.364;9.566;2023-08-07T05:22:44;99324.41;;;13.09;100.00
31681;BME280;18281;51.364;9.566;2023-08-07T05:25:09;99319.13;;;13.20;100.00
31681;BME280;18281;51.364;9.566;2023-08-07T05:27:36;99321.75;;;13.20;100.00
31681;BME280;18281;51.364;9.566;2023-08-07T05:30:01;99321.66;;;13.22;100.00
31681;BME280;18281;51.364;9.566;2023-08-07T05:32:27;99318.78;;;13.25;100.00
31681;BME280;18281;51.364;9.566;2023-08-07T05:34:53;99328.13;;;13.29;100.00
31681;BME280;18281;51.364;9.566;2023-08-07T05:37:18;99324.66;;;13.29;100.00
31681;BME280;18281;51.364;9.566;2023-08-07T05:39:43;99328.84;;;13.31;100.00
31681;BME280;18281;51.364;9.566;2023-08-07T05:42:08;99320.56;;;13.36;100.00
31681;BME280;18281;51.364;9.566;2023-08-07T05:44:35;99326.56;;;13.38;100.00
31681;BME280;18281;51.364;9.566;2023-08-07T05:47:00;99330.16;;;13.37;100.00
31681;BME280;18281;51.364;9.566;2023-08-07T05:49:25;99338.66;;;13.40;100.00
31681;BME280;18281;51.364;9.566;2023-08-07T05:51:50;99339.03;;;13.47;100.00
31681;BME280;18281;51.364;9.566;2023-08-07T05:54:15;99337.22;;;13.48;100.00
31681;BME280;18281;51.364;9.566;2023-08-07T05:56:41;99335.41;;;13.48;100.00
31681;BME280;18281;51.364;9.566;2023-08-07T05:59:06;99342.38;;;13.49;100.00
31681;BME280;18281;51.364;9.566;2023-08-07T06:01:31;99343.22;;;13.50;100.00
31681;BME280;18281;51.364;9.566;2023-08-07T06:03:57;99346.69;;;13.50;100.00
31681;BME280;18281;51.364;9.566;2023-08-07T06:06:23;99348.13;;;13.54;100.00
31681;BME280;18281;51.364;9.566;2023-08-07T06:08:48;99353.53;;;13.53;100.00
31681;BME280;18281;51.364;9.566;2023-08-07T06:11:13;99354.09;;;13.56;100.00
31681;BME280;18281;51.364;9.566;2023-08-07T06:13:39;99354.09;;;13.56;100.00
31681;BME280;18281;51.364;9.566;2023-08-07T06:16:05;99356.75;;;13.56;100.00
31681;BME280;18281;51.364;9.566;2023-08-07T06:18:31;99353.75;;;13.61;100.00
31681;BME280;18281;51.364;9.566;2023-08-07T06:20:56;99353.63;;;13.63;100.00
31681;BME280;18281;51.364;9.566;2023-08-07T06:23:21;99354.72;;;13.60;100.00
31681;BME280;18281;51.364;9.566;2023-08-07T06:25:46;99358.91;;;13.63;100.00
31681;BME280;18281;51.364;9.566;2023-08-07T06:28:12;99358.91;;;13.63;100.00
31681;BME280;18281;51.364;9.566;2023-08-07T06:30:37;99360.84;;;13.61;100.00
31681;BME280;18281;51.364;9.566;2023-08-07T06:33:03;99365.88;;;13.64;100.00
31681;BME280;18281;51.364;9.566;2023-08-07T06:35:28;99365.88;;;13.64;100.00
31681;BME280;18281;51.364;9.566;2023-08-07T06:37:53;99368.25;;;13.67;100.00
31681;BME280;18281;51.364;9.566;2023-08-07T06:40:18;99375.09;;;13.69;100.00
31681;BME280;18281;51.364;9.566;2023-08-07T06:42:43;99361.91;;;13.69;100.00
31681;BME280;18281;51.364;9.566;2023-08-07T06:45:09;99368.63;;;13.73;100.00
31681;BME280;18281;51.364;9.566;2023-08-07T06:47:34;99366.09;;;13.72;100.00
31681;BME280;18281;51.364;9.566;2023-08-07T06:49:59;99375.91;;;13.70;100.00
31681;BME280;18281;51.364;9.566;2023-08-07T06:52:25;99378.56;;;13.70;100.00
31681;BME280;18281;51.364;9.566;2023-08-07T06:54:50;99374.25;;;13.69;100.00
31681;BME280;18281;51.364;9.566;2023-08-07T06:57:15;99382.19;;;13.69;100.00
31681;BME280;18281;51.364;9.566;2023-08-07T06:59:40;99375.91;;;13.70;100.00
31681;BME280;18281;51.364;9.566;2023-08-07T07:02:05;99379.28;;;13.72;100.00
31681;BME280;18281;51.364;9.566;2023-08-07T07:04:31;99382.06;;;13.70;100.00
31681;BME280;18281;51.364;9.566;2023-08-07T07:06:56;99379.75;;;13.66;100.00
31681;BME280;18281;51.364;9.566;2023-08-07T07:09:21;99380.38;;;13.69;100.00
31681;BME280;18281;51.364;9.566;2023-08-07T07:11:47;99390.91;;;13.69;100.00
31681;BME280;18281;51.364;9.566;2023-08-07T07:14:12;99390.09;;;13.69;100.00
31681;BME280;18281;51.364;9.566;2023-08-07T07:16:37;99389.00;;;13.71;100.00
31681;BME280;18281;51.364;9.566;2023-08-07T07:19:05;99391.75;;;13.70;100.00
31681;BME280;18281;51.364;9.566;2023-08-07T07:21:33;99396.19;;;13.69;100.00
31681;BME280;18281;51.364;9.566;2023-08-07T07:23:58;99401.34;;;13.71;100.00
31681;BME280;18281;51.364;9.566;2023-08-07T07:26:23;99394.88;;;13.75;100.00
31681;BME280;18281;51.364;9.566;2023-08-07T07:28:49;99407.09;;;13.76;100.00
31681;BME280;18281;51.364;9.566;2023-08-07T07:31:16;99406.16;;;13.77;100.00
31681;BME280;18281;51.364;9.566;2023-08-07T07:33:41;99409.63;;;13.77;100.00
31681;BME280;18281;51.364;9.566;2023-08-07T07:36:06;99409.63;;;13.77;100.00
31681;BME280;18281;51.364;9.566;2023-08-07T07:38:32;99410.22;;;13.81;100.00
31681;BME280;18281;51.364;9.566;2023-08-07T07:40:57;99409.97;;;13.84;100.00
31681;BME280;18281;51.364;9.566;2023-08-07T07:43:22;99422.34;;;13.84;100.00
31681;BME280;18281;51.364;9.566;2023-08-07T07:45:48;99417.31;;;13.81;100.00
31681;BME280;18281;51.364;9.566;2023-08-07T07:48:14;99420.53;;;13.84;100.00
31681;BME280;18281;51.364;9.566;2023-08-07T07:50:39;99427.28;;;13.88;100.00
31681;BME280;18281;51.364;9.566;2023-08-07T07:53:05;99429.50;;;13.82;100.00
31681;BME280;18281;51.364;9.566;2023-08-07T07:55:31;99435.78;;;13.81;100.00
31681;BME280;18281;51.364;9.566;2023-08-07T07:57:57;99440.81;;;13.84;100.00
31681;BME280;18281;51.364;9.566;2023-08-07T08:00:22;99439.84;;;13.85;100.00
31681;BME280;18281;51.364;9.566;2023-08-07T08:02:51;99449.22;;;13.89;100.00
31681;BME280;18281;51.364;9.566;2023-08-07T08:05:17;99451.97;;;13.87;100.00
31681;BME280;18281;51.364;9.566;2023-08-07T08:07:42;99449.59;;;13.96;100.00
31681;BME280;18281;51.364;9.566;2023-08-07T08:10:08;99444.06;;;13.99;100.00
31681;BME280;18281;51.364;9.566;2023-08-07T08:12:34;99456.53;;;13.74;100.00
31681;BME280;18281;51.364;9.566;2023-08-07T08:14:59;99446.19;;;13.71;100.00
31681;BME280;18281;51.364;9.566;2023-08-07T08:17:24;99453.88;;;13.63;100.00
31681;BME280;18281;51.364;9.566;2023-08-07T08:19:50;99452.44;;;13.58;100.00
31681;BME280;18281;51.364;9.566;2023-08-07T08:22:15;99463.59;;;13.62;100.00
31681;BME280;18281;51.364;9.566;2023-08-07T08:24:40;99470.88;;;13.58;100.00
31681;BME280;18281;51.364;9.566;2023-08-07T08:27:06;99465.38;;;13.50;100.00
31681;BME280;18281;51.364;9.566;2023-08-07T08:29:31;99469.41;;;13.43;100.00
31681;BME280;18281;51.364;9.566;2023-08-07T08:31:56;99467.03;;;13.40;100.00
31681;BME280;18281;51.364;9.566;2023-08-07T08:34:21;99482.13;;;13.49;100.00
31681;BME280;18281;51.364;9.566;2023-08-07T08:36:47;99484.91;;;13.59;100.00
31681;BME280;18281;51.364;9.566;2023-08-07T08:39:12;99486.84;;;13.57;100.00
31681;BME280;18281;51.364;9.566;2023-08-07T08:41:37;99489.97;;;13.62;100.00
31681;BME280;18281;51.364;9.566;2023-08-07T08:44:03;99492.47;;;13.64;100.00
31681;BME280;18281;51.364;9.566;2023-08-07T08:46:30;99494.38;;;13.62;100.00
31681;BME280;18281;51.364;9.566;2023-08-07T08:48:57;99493.44;;;13.63;100.00
31681;BME280;18281;51.364;9.566;2023-08-07T08:51:22;99495.59;;;13.69;100.00
31681;BME280;18281;51.364;9.566;2023-08-07T08:53:49;99494.88;;;13.67;100.00
31681;BME280;18281;51.364;9.566;2023-08-07T08:56:15;99498.59;;;13.64;100.00
31681;BME280;18281;51.364;9.566;2023-08-07T08:58:41;99499.81;;;13.71;100.00
31681;BME280;18281;51.364;9.566;2023-08-07T09:01:07;99495.34;;;13.72;100.00
31681;BME280;18281;51.364;9.566;2023-08-07T09:03:33;99496.91;;;13.74;100.00
31681;BME280;18281;51.364;9.566;2023-08-07T09:05:58;99494.53;;;13.71;100.00
31681;BME280;18281;51.364;9.566;2023-08-07T09:08:27;99500.88;;;13.69;100.00
31681;BME280;18281;51.364;9.566;2023-08-07T09:10:56;99495.25;;;13.62;100.00
31681;BME280;18281;51.364;9.566;2023-08-07T09:13:22;99506.63;;;13.63;100.00
31681;BME280;18281;51.364;9.566;2023-08-07T09:15:48;99496.88;;;13.63;100.00
31681;BME280;18281;51.364;9.566;2023-08-07T09:18:15;99508.31;;;13.64;100.00
31681;BME280;18281;51.364;9.566;2023-08-07T09:20:41;99510.44;;;13.70;100.00
31681;BME280;18281;51.364;9.566;2023-08-07T09:23:07;99520.06;;;13.71;100.00
31681;BME280;18281;51.364;9.566;2023-08-07T09:25:32;99515.25;;;13.76;100.00
31681;BME280;18281;51.364;9.566;2023-08-07T09:27:58;99517.56;;;13.81;100.00
31681;BME280;18281;51.364;9.566;2023-08-07T09:30:26;99514.19;;;13.79;100.00
31681;BME280;18281;51.364;9.566;2023-08-07T09:32:53;99515.50;;;13.84;100.00
31681;BME280;18281;51.364;9.566;2023-08-07T09:35:21;99518.16;;;13.84;100.00
31681;BME280;18281;51.364;9.566;2023-08-07T09:37:47;99514.56;;;13.85;100.00
31681;BME280;18281;51.364;9.566;2023-08-07T09:40:13;99519.63;;;13.88;100.00
31681;BME280;18281;51.364;9.566;2023-08-07T09:42:43;99513.41;;;14.01;100.00
31681;BME280;18281;51.364;9.566;2023-08-07T09:45:27;99519.28;;;14.16;100.00
31681;BME280;18281;51.364;9.566;2023-08-07T09:48:00;99518.66;;;14.23;100.00
31681;BME280;18281;51.364;9.566;2023-08-07T09:50:26;99524.19;;;14.32;100.00
31681;BME280;18281;51.364;9.566;2023-08-07T09:52:52;99530.66;;;14.39;100.00
31681;BME280;18281;51.364;9.566;2023-08-07T09:55:17;99514.47;;;14.32;100.00
31681;BME280;18281;51.364;9.566;2023-08-07T09:57:49;99529.22;;;14.23;100.00
31681;BME280;18281;51.364;9.566;2023-08-07T10:10:07;99537.63;;;14.17;100.00
31681;BME280;18281;51.364;9.566;2023-08-07T10:15:36;99543.75;;;14.18;100.00
31681;BME280;18281;51.364;9.566;2023-08-07T10:21:12;99538.13;;;14.22;100.00
31681;BME280;18281;51.364;9.566;2023-08-07T10:23:53;99545.31;;;14.32;100.00
31681;BME280;18281;51.364;9.566;2023-08-07T10:26:19;99539.41;;;14.39;100.00
31681;BME280;18281;51.364;9.566;2023-08-07T10:29:07;99537.38;;;14.43;100.00
31681;BME280;18281;51.364;9.566;2023-08-07T10:31:44;99540.84;;;14.43;100.00
31681;BME280;18281;51.364;9.566;2023-08-07T10:34:09;99542.41;;;14.46;100.00
31681;BME280;18281;51.364;9.566;2023-08-07T10:36:35;99549.13;;;14.50;100.00
31681;BME280;18281;51.364;9.566;2023-08-07T10:39:11;99544.69;;;14.51;100.00
31681;BME280;18281;51.364;9.566;2023-08-07T10:41:41;99536.63;;;14.52;100.00
31681;BME280;18281;51.364;9.566;2023-08-07T10:44:16;99532.91;;;14.43;100.00
31681;BME280;18281;51.364;9.566;2023-08-07T10:49:29;99554.03;;;14.43;100.00
31681;BME280;18281;51.364;9.566;2023-08-07T10:51:55;99563.78;;;14.43;100.00
31681;BME280;18281;51.364;9.566;2023-08-07T10:54:20;99566.69;;;14.40;100.00
31681;BME280;18281;51.364;9.566;2023-08-07T10:56:51;99576.84;;;14.45;100.00
31681;BME280;18281;51.364;9.566;2023-08-07T10:59:17;99574.81;;;14.48;100.00
31681;BME280;18281;51.364;9.566;2023-08-07T11:01:42;99577.94;;;14.53;100.00
31681;BME280;18281;51.364;9.566;2023-08-07T11:04:09;99587.19;;;14.59;100.00
31681;BME280;18281;51.364;9.566;2023-08-07T11:06:35;99588.75;;;14.62;100.00
31681;BME280;18281;51.364;9.566;2023-08-07T11:09:02;99584.88;;;14.66;100.00
31681;BME280;18281;51.364;9.566;2023-08-07T11:11:29;99577.19;;;14.74;100.00
31681;BME280;18281;51.364;9.566;2023-08-07T11:13:54;99581.66;;;14.73;100.00
31681;BME280;18281;51.364;9.566;2023-08-07T11:16:19;99579.47;;;14.67;100.00
31681;BME280;18281;51.364;9.566;2023-08-07T11:18:48;99596.53;;;14.63;100.00
31681;BME280;18281;51.364;9.566;2023-08-07T11:21:13;99606.75;;;14.56;100.00
31681;BME280;18281;51.364;9.566;2023-08-07T11:23:42;99622.84;;;14.53;100.00
31681;BME280;18281;51.364;9.566;2023-08-07T11:26:09;99607.94;;;14.64;100.00
31681;BME280;18281;51.364;9.566;2023-08-07T11:28:34;99610.84;;;14.72;100.00
31681;BME280;18281;51.364;9.566;2023-08-07T11:31:00;99615.63;;;14.67;100.00
31681;BME280;18281;51.364;9.566;2023-08-07T11:33:27;99606.50;;;14.59;100.00
31681;BME280;18281;51.364;9.566;2023-08-07T11:35:52;99609.88;;;14.62;100.00
31681;BME280;18281;51.364;9.566;2023-08-07T11:38:34;99610.72;;;14.73;100.00
31681;BME280;18281;51.364;9.566;2023-08-07T11:41:00;99613.22;;;14.64;100.00
31681;BME280;18281;51.364;9.566;2023-08-07T11:43:26;99618.50;;;14.64;100.00
31681;BME280;18281;51.364;9.566;2023-08-07T11:45:52;99616.13;;;14.60;100.00
31681;BME280;18281;51.364;9.566;2023-08-07T11:48:17;99614.81;;;14.55;100.00
31681;BME280;18281;51.364;9.566;2023-08-07T11:50:42;99611.69;;;14.61;100.00
31681;BME280;18281;51.364;9.566;2023-08-07T11:53:08;99605.91;;;14.79;100.00
31681;BME280;18281;51.364;9.566;2023-08-07T11:55:36;99604.34;;;14.87;100.00
31681;BME280;18281;51.364;9.566;2023-08-07T11:58:04;99606.72;;;14.90;100.00
31681;BME280;18281;51.364;9.566;2023-08-07T12:00:30;99603.25;;;14.90;100.00
31681;BME280;18281;51.364;9.566;2023-08-07T12:02:55;99611.19;;;14.79;100.00
31681;BME280;18281;51.364;9.566;2023-08-07T12:05:20;99610.09;;;14.92;100.00
31681;BME280;18281;51.364;9.566;2023-08-07T12:07:47;99604.56;;;14.96;100.00
31681;BME280;18281;51.364;9.566;2023-08-07T12:10:12;99615.84;;;14.98;100.00
31681;BME280;18281;51.364;9.566;2023-08-07T12:12:41;99615.84;;;14.98;100.00
31681;BME280;18281;51.364;9.566;2023-08-07T12:15:07;99607.94;;;14.98;100.00
31681;BME280;18281;51.364;9.566;2023-08-07T12:17:33;99615.00;;;14.97;100.00
31681;BME280;18281;51.364;9.566;2023-08-07T12:19:58;99633.41;;;14.99;100.00
31681;BME280;18281;51.364;9.566;2023-08-07T12:22:24;99632.69;;;14.97;100.00
31681;BME280;18281;51.364;9.566;2023-08-07T12:24:55;99627.25;;;14.98;100.00
31681;BME280;18281;51.364;9.566;2023-08-07T12:27:29;99642.25;;;15.09;100.00
31681;BME280;18281;51.364;9.566;2023-08-07T12:29:55;99633.84;;;15.15;100.00
31681;BME280;18281;51.364;9.566;2023-08-07T12:32:20;99635.75;;;15.13;100.00
31681;BME280;18281;51.364;9.566;2023-08-07T12:34:45;99635.66;;;15.03;100.00
31681;BME280;18281;51.364;9.566;2023-08-07T12:37:11;99642.50;;;15.06;100.00
31681;BME280;18281;51.364;9.566;2023-08-07T12:39:36;99635.94;;;15.00;100.00
31681;BME280;18281;51.364;9.566;2023-08-07T12:42:01;99639.91;;;14.95;100.00
31681;BME280;18281;51.364;9.566;2023-08-07T12:44:28;99635.41;;;15.06;100.00
31681;BME280;18281;51.364;9.566;2023-08-07T12:46:54;99631.16;;;15.26;100.00
31681;BME280;18281;51.364;9.566;2023-08-07T12:49:19;99635.59;;;15.26;100.00
31681;BME280;18281;51.364;9.566;2023-08-07T12:51:44;99638.13;;;15.27;100.00
31681;BME280;18281;51.364;9.566;2023-08-07T12:54:09;99638.72;;;15.31;100.00
31681;BME280;18281;51.364;9.566;2023-08-07T12:56:35;99645.59;;;15.22;100.00
31681;BME280;18281;51.364;9.566;2023-08-07T12:59:01;99643.53;;;15.26;100.00
31681;BME280;18281;51.364;9.566;2023-08-07T13:01:26;99654.59;;;15.31;100.00
31681;BME280;18281;51.364;9.566;2023-08-07T13:03:51;99703.63;;;15.24;100.00
31681;BME280;18281;51.364;9.566;2023-08-07T13:06:17;99711.00;;;15.20;100.00
31681;BME280;18281;51.364;9.566;2023-08-07T13:08:42;99713.66;;;15.20;100.00
31681;BME280;18281;51.364;9.566;2023-08-07T13:11:07;99720.00;;;14.84;100.00